Time;durP1;ratioP1;P1;durP2;ratioP2;P2;SDS_P1;SDS_P2;PMS_P1;PMS_P2;Temp;Humidity;BMP_temperature;BMP_pressure;BME280_temperature;BME280_humidity;BME280_pressure;Samples;Min_cycle;Max_cycle;Signal;HPM_P1;HPM_P2
2023/05/12 00:02:22;;;;;;;;;;;;;;;13.63;100.00;-18394.63;5005093;28;19925;-82
2023/05/12 00:04:47;;;;;;;;;;;;;;;13.65;100.00;-18395.31;5005031;28;19928;-82
2023/05/12 00:07:12;;;;;;;;;;;;;;;13.60;100.00;-18393.94;5004871;28;19925;-83
2023/05/12 00:09:37;;;;;;;;;;;;;;;13.61;100.00;-18394.06;5003716;28;20057;-82
2023/05/12 00:12:03;;;;;;;;;;;;;;;13.66;100.00;-18395.56;5006027;28;20312;-83
2023/05/12 00:14:28;;;;;;;;;;;;;;;13.68;100.00;-18396.13;5005608;28;19939;-83
2023/05/12 00:16:53;;;;;;;;;;;;;;;13.71;100.00;-18396.94;5017997;28;19932;-82
2023/05/12 00:19:19;;;;;;;;;;;;;;;13.70;100.00;-18396.53;5006077;28;19918;-83
2023/05/12 00:21:45;;;;;;;;;;;;;;;13.65;100.00;-18395.31;5006758;28;21722;-83
2023/05/12 00:24:10;;;;;;;;;;;;;;;13.66;100.00;-18395.56;5006577;28;20265;-82
2023/05/12 00:26:35;;;;;;;;;;;;;;;13.62;100.00;-18394.47;5005398;28;19924;-83
2023/05/12 00:29:00;;;;;;;;;;;;;;;13.78;100.00;-18398.72;5005434;28;19928;-83
2023/05/12 00:31:26;;;;;;;;;;;;;;;13.80;100.00;-18399.28;5021942;28;19918;-83
2023/05/12 00:33:51;;;;;;;;;;;;;;;13.80;100.00;-18399.13;5006785;28;19924;-83
2023/05/12 00:36:16;;;;;;;;;;;;;;;13.77;100.00;-18398.44;5004480;28;20007;-83
2023/05/12 00:38:41;;;;;;;;;;;;;;;13.76;100.00;-18398.31;5004927;28;20336;-83
2023/05/12 00:41:06;;;;;;;;;;;;;;;13.91;100.00;-18402.16;5008842;28;20015;-83
2023/05/12 00:43:32;;;;;;;;;;;;;;;13.72;100.00;-18397.09;5007741;28;20004;-83
2023/05/12 00:45:58;;;;;;;;;;;;;;;13.60;100.00;-18393.78;5004050;28;20001;-84
2023/05/12 00:48:23;;;;;;;;;;;;;;;13.71;100.00;-18396.94;5007635;28;19927;-84
2023/05/12 00:50:48;;;;;;;;;;;;;;;13.76;100.00;-18398.31;5012675;28;19917;-84
2023/05/12 00:53:13;;;;;;;;;;;;;;;13.71;100.00;-18396.81;5008483;28;20041;-83
2023/05/12 00:55:39;;;;;;;;;;;;;;;13.67;100.00;-18395.84;5010509;28;19967;-83
2023/05/12 00:58:04;;;;;;;;;;;;;;;13.64;100.00;-18395.03;5007544;28;20008;-82
2023/05/12 01:00:29;;;;;;;;;;;;;;;13.68;100.00;-18396.13;5009750;28;19944;-83
2023/05/12 01:02:57;;;;;;;;;;;;;;;13.82;100.00;-18399.69;5010774;28;19952;-83
2023/05/12 01:05:25;;;;;;;;;;;;;;;13.85;100.00;-18400.50;5013503;28;20343;-83
2023/05/12 01:07:50;;;;;;;;;;;;;;;13.93;100.00;-18402.69;5013319;28;19917;-82
2023/05/12 01:10:17;;;;;;;;;;;;;;;13.65;100.00;-18395.31;5011197;28;19943;-83
2023/05/12 01:12:42;;;;;;;;;;;;;;;13.79;100.00;-18399.00;5011527;28;20388;-82
2023/05/12 01:15:08;;;;;;;;;;;;;;;13.76;100.00;-18398.31;5010605;28;19917;-83
2023/05/12 01:17:34;;;;;;;;;;;;;;;13.81;100.00;-18399.41;5024887;28;19940;-82
2023/05/12 01:20:01;;;;;;;;;;;;;;;13.83;100.00;-18399.97;5005999;28;19917;-83
2023/05/12 01:22:30;;;;;;;;;;;;;;;13.71;100.00;-18396.94;5010311;28;19917;-83
2023/05/12 01:25:01;;;;;;;;;;;;;;;13.75;100.00;-18397.91;5024947;28;19933;-82
2023/05/12 01:27:27;;;;;;;;;;;;;;;13.88;100.00;-18401.31;5011492;28;19917;-83
2023/05/12 01:29:54;;;;;;;;;;;;;;;14.03;100.00;-18405.44;5009573;28;19918;-83
2023/05/12 01:32:20;;;;;;;;;;;;;;;14.08;100.00;-18406.81;5009817;28;20594;-82
2023/05/12 01:34:45;;;;;;;;;;;;;;;13.67;100.00;-18395.72;5010901;28;19934;-83
2023/05/12 01:37:11;;;;;;;;;;;;;;;13.77;100.00;-18398.59;5009726;28;19917;-83
2023/05/12 01:39:36;;;;;;;;;;;;;;;13.70;100.00;-18396.66;5008974;28;19980;-83
2023/05/12 01:42:02;;;;;;;;;;;;;;;13.72;100.00;-18397.22;5009838;28;20041;-83
2023/05/12 01:44:27;;;;;;;;;;;;;;;13.73;100.00;-18397.34;5039438;28;21335;-83
2023/05/12 01:46:53;;;;;;;;;;;;;;;13.87;100.00;-18401.06;5042735;28;19921;-83
2023/05/12 01:49:18;;;;;;;;;;;;;;;13.88;100.00;-18401.47;5007607;28;19917;-83
2023/05/12 01:51:43;;;;;;;;;;;;;;;13.92;100.00;-18402.41;5011022;28;19921;-83
2023/05/12 01:54:08;;;;;;;;;;;;;;;13.92;100.00;-18402.56;5004823;28;19926;-83
2023/05/12 01:56:34;;;;;;;;;;;;;;;13.79;100.00;-18398.88;5011952;28;19917;-83
2023/05/12 01:58:59;;;;;;;;;;;;;;;13.67;100.00;-18395.72;5010553;28;20009;-83
2023/05/12 02:01:27;;;;;;;;;;;;;;;14.10;100.00;-18407.34;5010247;28;20012;-83
2023/05/12 02:03:53;;;;;;;;;;;;;;;14.07;100.00;-18406.53;5009545;28;19921;-83
2023/05/12 02:06:18;;;;;;;;;;;;;;;13.90;100.00;-18401.88;5009615;28;19949;-83
2023/05/12 02:08:43;;;;;;;;;;;;;;;14.08;100.00;-18406.81;5027823;28;19925;-83
2023/05/12 02:11:08;;;;;;;;;;;;;;;14.18;100.00;-18409.56;5005638;28;19925;-83
2023/05/12 02:13:34;;;;;;;;;;;;;;;13.99;100.00;-18404.47;5009330;28;19921;-83
2023/05/12 02:15:59;;;;;;;;;;;;;;;14.15;100.00;-18408.72;5011092;28;20317;-83
2023/05/12 02:18:25;;;;;;;;;;;;;;;14.10;100.00;-18407.34;5023029;28;19918;-83
2023/05/12 02:20:50;;;;;;;;;;;;;;;14.03;100.00;-18405.44;5010621;28;19928;-83
2023/05/12 02:23:15;;;;;;;;;;;;;;;14.07;100.00;-18406.53;5007790;28;19924;-83
2023/05/12 02:25:40;;;;;;;;;;;;;;;13.91;100.00;-18402.16;5006339;28;19917;-83
2023/05/12 02:28:09;;;;;;;;;;;;;;;13.87;100.00;-18401.19;5007144;28;19921;-82
2023/05/12 02:30:34;;;;;;;;;;;;;;;13.91;100.00;-18402.28;5008998;28;19917;-83
2023/05/12 02:33:00;;;;;;;;;;;;;;;13.99;100.00;-18404.34;5011965;28;20467;-85
2023/05/12 02:35:25;;;;;;;;;;;;;;;13.91;100.00;-18402.28;5002331;28;19918;-86
2023/05/12 02:37:50;;;;;;;;;;;;;;;14.03;100.00;-18405.31;5002275;28;19919;-85
2023/05/12 02:40:15;;;;;;;;;;;;;;;13.88;100.00;-18401.47;5003483;28;20420;-84
2023/05/12 02:42:42;;;;;;;;;;;;;;;14.01;100.00;-18404.88;5010990;28;20292;-85
2023/05/12 02:45:07;;;;;;;;;;;;;;;13.91;100.00;-18402.28;5007833;28;19920;-83
2023/05/12 02:47:33;;;;;;;;;;;;;;;13.96;100.00;-18403.66;5004656;28;19917;-84
2023/05/12 02:49:58;;;;;;;;;;;;;;;14.07;100.00;-18406.41;5002524;28;19944;-84
2023/05/12 02:52:23;;;;;;;;;;;;;;;13.98;100.00;-18404.06;4999241;28;19968;-84
2023/05/12 02:54:48;;;;;;;;;;;;;;;14.18;100.00;-18409.41;5006469;28;19924;-84
2023/05/12 02:57:14;;;;;;;;;;;;;;;14.15;100.00;-18408.72;5003586;28;19918;-84
2023/05/12 02:59:39;;;;;;;;;;;;;;;14.19;100.00;-18409.69;5002279;28;19952;-84
2023/05/12 03:02:04;;;;;;;;;;;;;;;13.94;100.00;-18403.09;5001190;28;20448;-84
2023/05/12 03:04:29;;;;;;;;;;;;;;;13.72;100.00;-18397.22;5003757;28;20328;-84
2023/05/12 03:06:55;;;;;;;;;;;;;;;14.04;100.00;-18405.56;5008051;28;19932;-84
2023/05/12 03:09:21;;;;;;;;;;;;;;;14.00;100.00;-18404.63;4996937;28;19924;-84
2023/05/12 03:11:46;;;;;;;;;;;;;;;13.76;100.00;-18398.19;5007866;28;20528;-84
2023/05/12 03:14:11;;;;;;;;;;;;;;;13.87;100.00;-18401.06;4999674;28;20347;-85
2023/05/12 03:16:37;;;;;;;;;;;;;;;14.03;100.00;-18405.31;5008417;28;20561;-84
2023/05/12 03:19:03;;;;;;;;;;;;;;;13.94;100.00;-18402.97;5006809;28;19941;-84
2023/05/12 03:21:29;;;;;;;;;;;;;;;14.05;100.00;-18405.84;4998895;28;20351;-84
2023/05/12 03:23:54;;;;;;;;;;;;;;;13.96;100.00;-18403.53;5035526;28;19931;-84
2023/05/12 03:26:19;;;;;;;;;;;;;;;13.99;100.00;-18404.47;5004113;28;19963;-84
2023/05/12 03:28:44;;;;;;;;;;;;;;;14.02;100.00;-18405.16;5008208;28;19975;-84
2023/05/12 03:31:09;;;;;;;;;;;;;;;14.00;100.00;-18404.63;5003572;28;20405;-84
2023/05/12 03:33:35;;;;;;;;;;;;;;;13.91;100.00;-18402.28;5006039;28;19940;-84
2023/05/12 03:36:00;;;;;;;;;;;;;;;13.83;100.00;-18399.97;5004546;28;19917;-84
2023/05/12 03:38:25;;;;;;;;;;;;;;;13.70;100.00;-18396.66;5003996;28;19921;-84
2023/05/12 03:40:53;;;;;;;;;;;;;;;13.68;100.00;-18396.13;5004032;28;19922;-84
2023/05/12 03:43:20;;;;;;;;;;;;;;;13.74;100.00;-18397.75;5004250;28;19926;-83
2023/05/12 03:45:45;;;;;;;;;;;;;;;13.67;100.00;-18395.84;5007040;28;20043;-85
2023/05/12 03:48:10;;;;;;;;;;;;;;;13.69;100.00;-18396.25;5004014;28;20000;-84
2023/05/12 03:50:35;;;;;;;;;;;;;;;13.76;100.00;-18398.31;5032258;28;19924;-84
2023/05/12 03:53:01;;;;;;;;;;;;;;;13.76;100.00;-18398.31;4999096;28;19925;-85
2023/05/12 03:55:26;;;;;;;;;;;;;;;13.71;100.00;-18396.94;4996670;28;19917;-85
2023/05/12 03:57:51;;;;;;;;;;;;;;;13.80;100.00;-18399.28;5005399;28;19925;-84
2023/05/12 04:00:17;;;;;;;;;;;;;;;13.83;100.00;-18400.09;4999234;28;20658;-84
2023/05/12 04:02:42;;;;;;;;;;;;;;;13.82;100.00;-18399.69;5021491;28;20008;-84
2023/05/12 04:05:08;;;;;;;;;;;;;;;13.72;100.00;-18397.22;5036738;28;19924;-84
2023/05/12 04:07:34;;;;;;;;;;;;;;;13.71;100.00;-18396.81;5005627;28;19921;-85
2023/05/12 04:09:59;;;;;;;;;;;;;;;13.77;100.00;-18398.59;5003965;28;19948;-85
2023/05/12 04:12:24;;;;;;;;;;;;;;;13.82;100.00;-18399.69;5004771;28;19968;-85
2023/05/12 04:14:49;;;;;;;;;;;;;;;13.76;100.00;-18398.19;5014774;28;19941;-85
2023/05/12 04:17:17;;;;;;;;;;;;;;;13.81;100.00;-18399.41;5011273;28;19929;-85
2023/05/12 04:19:42;;;;;;;;;;;;;;;13.66;100.00;-18395.44;5008161;28;19988;-86
2023/05/12 04:22:07;;;;;;;;;;;;;;;13.86;100.00;-18400.78;5003849;28;20320;-85
2023/05/12 04:24:33;;;;;;;;;;;;;;;13.90;100.00;-18402.00;5005954;28;19968;-85
2023/05/12 04:26:58;;;;;;;;;;;;;;;13.95;100.00;-18403.38;5008019;28;20329;-85
2023/05/12 04:29:23;;;;;;;;;;;;;;;13.96;100.00;-18403.53;5007035;28;19921;-84
2023/05/12 04:31:48;;;;;;;;;;;;;;;13.90;100.00;-18401.88;5009407;28;19917;-84
2023/05/12 04:34:14;;;;;;;;;;;;;;;14.11;100.00;-18407.63;5003930;28;19914;-85
2023/05/12 04:36:39;;;;;;;;;;;;;;;13.89;100.00;-18401.59;5017939;28;19917;-83
2023/05/12 04:39:04;;;;;;;;;;;;;;;13.99;100.00;-18404.34;5007257;28;19921;-84
2023/05/12 04:41:29;;;;;;;;;;;;;;;14.09;100.00;-18407.06;5009898;28;19922;-84
2023/05/12 04:43:55;;;;;;;;;;;;;;;13.84;100.00;-18400.38;5008063;28;19918;-83
2023/05/12 04:46:20;;;;;;;;;;;;;;;13.94;100.00;-18402.97;5007738;28;19923;-83
2023/05/12 04:48:45;;;;;;;;;;;;;;;13.99;100.00;-18404.47;5007468;28;20015;-83
2023/05/12 04:51:11;;;;;;;;;;;;;;;13.98;100.00;-18404.06;5005935;28;20401;-83
2023/05/12 04:53:36;;;;;;;;;;;;;;;14.17;100.00;-18409.13;5004256;28;20725;-83
2023/05/12 04:56:02;;;;;;;;;;;;;;;14.32;100.00;-18413.09;5006117;28;19917;-83
2023/05/12 04:58:27;;;;;;;;;;;;;;;14.31;100.00;-18412.84;5006335;28;20439;-83
2023/05/12 05:00:52;;;;;;;;;;;;;;;13.86;100.00;-18400.78;5006715;28;19928;-83
2023/05/12 05:03:17;;;;;;;;;;;;;;;13.96;100.00;-18403.66;5038184;28;20412;-84
2023/05/12 05:05:43;;;;;;;;;;;;;;;13.84;100.00;-18400.38;5022369;28;22020;-83
2023/05/12 05:08:08;;;;;;;;;;;;;;;13.99;100.00;-18404.34;5003245;28;19917;-83
2023/05/12 05:10:33;;;;;;;;;;;;;;;13.95;100.00;-18403.25;5001730;28;19933;-84
2023/05/12 05:12:58;;;;;;;;;;;;;;;14.09;100.00;-18407.06;5000909;28;20471;-84
2023/05/12 05:15:26;;;;;;;;;;;;;;;14.06;100.00;-18406.25;4997807;28;19929;-84
2023/05/12 05:17:52;;;;;;;;;;;;;;;14.08;100.00;-18406.66;5032944;28;19967;-84
2023/05/12 05:20:17;;;;;;;;;;;;;;;14.02;100.00;-18405.16;5005328;28;20343;-84
2023/05/12 05:22:42;;;;;;;;;;;;;;;14.14;100.00;-18408.31;5005169;28;19967;-84
2023/05/12 05:25:08;;;;;;;;;;;;;;;14.13;100.00;-18408.19;5034235;28;20337;-84
2023/05/12 05:27:34;;;;;;;;;;;;;;;14.19;100.00;-18409.69;5010453;28;19928;-84
2023/05/12 05:29:59;;;;;;;;;;;;;;;14.29;100.00;-18412.28;5002647;28;19917;-84
2023/05/12 05:32:25;;;;;;;;;;;;;;;14.07;100.00;-18406.53;5003157;28;19917;-84
2023/05/12 05:34:50;;;;;;;;;;;;;;;14.12;100.00;-18407.91;5002550;28;19914;-84
2023/05/12 05:37:16;;;;;;;;;;;;;;;14.29;100.00;-18412.41;5007058;28;20308;-84
2023/05/12 05:39:41;;;;;;;;;;;;;;;14.15;100.00;-18408.72;4997456;28;19921;-84
2023/05/12 05:42:07;;;;;;;;;;;;;;;14.12;100.00;-18407.91;5006490;28;19928;-84
2023/05/12 05:44:32;;;;;;;;;;;;;;;14.12;100.00;-18407.91;4999629;28;19925;-84
2023/05/12 05:46:57;;;;;;;;;;;;;;;14.26;100.00;-18411.59;5001120;28;19940;-84
2023/05/12 05:49:22;;;;;;;;;;;;;;;14.28;100.00;-18412.00;4995101;28;19917;-83
2023/05/12 05:51:47;;;;;;;;;;;;;;;14.40;100.00;-18415.28;5002528;28;19998;-84
2023/05/12 05:54:13;;;;;;;;;;;;;;;14.45;100.00;-18416.66;5000698;28;19929;-84
2023/05/12 05:56:38;;;;;;;;;;;;;;;14.60;100.00;-18420.78;5008281;28;19925;-84
2023/05/12 05:59:04;;;;;;;;;;;;;;;14.60;100.00;-18420.63;5004100;28;19925;-84
2023/05/12 06:01:29;;;;;;;;;;;;;;;14.58;100.00;-18420.22;5004343;28;19932;-84
2023/05/12 06:03:55;;;;;;;;;;;;;;;14.34;100.00;-18413.66;5020491;28;20662;-84
2023/05/12 06:06:20;;;;;;;;;;;;;;;14.35;100.00;-18413.94;5004539;28;19972;-84
2023/05/12 06:08:45;;;;;;;;;;;;;;;14.42;100.00;-18415.84;5005925;28;19932;-84
2023/05/12 06:11:10;;;;;;;;;;;;;;;14.52;100.00;-18418.44;5004841;28;19933;-84
2023/05/12 06:13:36;;;;;;;;;;;;;;;14.54;100.00;-18419.00;4997926;28;19917;-84
2023/05/12 06:16:01;;;;;;;;;;;;;;;14.62;100.00;-18421.31;5039418;28;20000;-84
2023/05/12 06:18:26;;;;;;;;;;;;;;;14.81;100.00;-18426.25;5008562;28;20384;-84
2023/05/12 06:20:52;;;;;;;;;;;;;;;14.87;100.00;-18427.91;5005963;28;20343;-84
2023/05/12 06:23:17;;;;;;;;;;;;;;;14.95;100.00;-18430.09;5005597;28;20428;-84
2023/05/12 06:25:42;;;;;;;;;;;;;;;14.97;100.00;-18430.50;5013866;28;19952;-84
2023/05/12 06:28:08;;;;;;;;;;;;;;;15.07;100.00;-18433.38;4994062;28;19924;-84
2023/05/12 06:30:33;;;;;;;;;;;;;;;15.12;100.00;-18434.72;5005016;28;19959;-84
2023/05/12 06:32:59;;;;;;;;;;;;;;;15.27;100.00;-18438.69;5006001;28;20396;-84
2023/05/12 06:35:24;;;;;;;;;;;;;;;15.35;100.00;-18440.75;5001145;28;19917;-83
2023/05/12 06:37:49;;;;;;;;;;;;;;;15.53;100.00;-18445.53;4998462;28;19924;-83
2023/05/12 06:40:15;;;;;;;;;;;;;;;15.67;100.00;-18449.22;5004169;28;19917;-84
2023/05/12 06:42:41;;;;;;;;;;;;;;;15.46;100.00;-18443.63;5035015;28;20415;-84
2023/05/12 06:45:06;;;;;;;;;;;;;;;15.46;100.00;-18443.75;5002244;28;19960;-84
2023/05/12 06:47:32;;;;;;;;;;;;;;;15.54;100.00;-18445.81;5012796;28;19925;-84
2023/05/12 06:49:57;;;;;;;;;;;;;;;15.65;100.00;-18448.69;5000150;28;20389;-84
2023/05/12 06:52:22;;;;;;;;;;;;;;;15.77;100.00;-18451.97;5003143;28;19917;-84
2023/05/12 06:54:48;;;;;;;;;;;;;;;15.54;100.00;-18445.94;4998485;28;19918;-84
2023/05/12 06:57:13;;;;;;;;;;;;;;;15.68;100.00;-18449.66;5002715;28;19921;-84
2023/05/12 06:59:38;;;;;;;;;;;;;;;15.56;100.00;-18446.50;5000752;28;20328;-84
2023/05/12 07:02:04;;;;;;;;;;;;;;;15.68;100.00;-18449.50;5006516;28;20404;-84
2023/05/12 07:04:29;;;;;;;;;;;;;;;15.74;100.00;-18451.16;5011623;28;19924;-84
2023/05/12 07:06:55;;;;;;;;;;;;;;;15.93;100.00;-18456.34;5006243;28;19925;-84
2023/05/12 07:09:21;;;;;;;;;;;;;;;15.84;100.00;-18453.75;5006240;28;19939;-84
2023/05/12 07:11:46;;;;;;;;;;;;;;;16.07;100.00;-18459.91;5004668;28;20012;-85
2023/05/12 07:14:11;;;;;;;;;;;;;;;15.95;100.00;-18456.91;5007055;28;19924;-85
2023/05/12 07:16:36;;;;;;;;;;;;;;;16.20;100.00;-18463.59;5004227;28;19917;-84
2023/05/12 07:19:02;;;;;;;;;;;;;;;16.33;100.00;-18467.00;5003708;28;19924;-85
2023/05/12 07:21:28;;;;;;;;;;;;;;;16.46;100.00;-18470.44;5006245;28;19932;-84
2023/05/12 07:23:53;;;;;;;;;;;;;;;16.71;100.00;-18477.13;5004192;28;20467;-84
2023/05/12 07:26:19;;;;;;;;;;;;;;;16.87;100.00;-18481.50;5007086;28;19961;-85
2023/05/12 07:28:45;;;;;;;;;;;;;;;17.02;100.00;-18485.31;5002625;28;19936;-84
2023/05/12 07:31:10;;;;;;;;;;;;;;;16.99;100.00;-18484.63;4999244;28;19917;-84
2023/05/12 07:33:36;;;;;;;;;;;;;;;16.63;100.00;-18475.06;5023910;28;19913;-85
2023/05/12 07:36:01;;;;;;;;;;;;;;;16.53;100.00;-18472.34;5000235;28;20459;-85
2023/05/12 07:38:26;;;;;;;;;;;;;;;16.74;100.00;-18477.81;5005512;28;19942;-85
2023/05/12 07:40:52;;;;;;;;;;;;;;;16.86;100.00;-18481.09;5007055;28;20053;-84
2023/05/12 07:43:17;;;;;;;;;;;;;;;17.00;100.00;-18484.91;5005081;28;19941;-85
2023/05/12 07:45:43;;;;;;;;;;;;;;;17.22;100.00;-18490.66;5007559;28;19917;-85
2023/05/12 07:48:10;;;;;;;;;;;;;;;17.01;100.00;-18485.03;5006701;28;19925;-84
2023/05/12 07:50:35;;;;;;;;;;;;;;;17.05;100.00;-18486.13;5009139;28;19913;-85
2023/05/12 07:53:00;;;;;;;;;;;;;;;17.01;100.00;-18485.19;5037166;28;19987;-85
2023/05/12 07:55:25;;;;;;;;;;;;;;;17.19;100.00;-18489.97;5011946;28;19917;-85
2023/05/12 07:57:51;;;;;;;;;;;;;;;17.11;100.00;-18487.78;5004217;28;19917;-85
2023/05/12 08:00:17;;;;;;;;;;;;;;;17.31;100.00;-18493.25;5011864;28;21287;-85
2023/05/12 08:02:42;;;;;;;;;;;;;;;17.35;100.00;-18494.34;4996643;28;19948;-85
2023/05/12 08:05:08;;;;;;;;;;;;;;;17.43;100.00;-18496.25;5010806;28;19936;-84
2023/05/12 08:07:34;;;;;;;;;;;;;;;17.53;100.00;-18498.97;5042940;28;19913;-85
2023/05/12 08:09:59;;;;;;;;;;;;;;;17.65;100.00;-18502.25;5026464;28;20047;-85
2023/05/12 08:12:24;;;;;;;;;;;;;;;17.64;100.00;-18501.97;4995183;28;19921;-85
2023/05/12 08:14:50;;;;;;;;;;;;;;;17.71;100.00;-18503.75;5019448;28;19917;-85
2023/05/12 08:17:15;;;;;;;;;;;;;;;17.83;100.00;-18507.03;5002762;28;19921;-85
2023/05/12 08:19:40;;;;;;;;;;;;;;;18.00;100.00;-18511.53;4996613;28;19925;-84
2023/05/12 08:22:05;;;;;;;;;;;;;;;18.04;100.00;-18512.63;5007990;28;19921;-84
2023/05/12 08:24:31;;;;;;;;;;;;;;;18.28;100.00;-18519.03;4999912;28;20412;-84
2023/05/12 08:26:56;;;;;;;;;;;;;;;18.20;100.00;-18516.84;5006239;28;20432;-84
2023/05/12 08:29:21;;;;;;;;;;;;;;;18.38;100.00;-18521.75;5004290;28;19914;-84
2023/05/12 08:31:46;;;;;;;;;;;;;;;18.53;100.00;-18525.72;5007337;28;19914;-85
2023/05/12 08:34:12;;;;;;;;;;;;;;;18.60;100.00;-18527.47;5006297;28;20376;-84
2023/05/12 08:36:38;;;;;;;;;;;;;;;18.77;100.00;-18532.13;4999195;28;19914;-84
2023/05/12 08:39:03;;;;;;;;;;;;;;;18.46;100.00;-18523.94;5009111;28;19949;-84
2023/05/12 08:41:47;;;;;;;;;;;;;;;18.54;100.00;-18525.97;5006374;28;20288;-84
2023/05/12 08:44:12;;;;;;;;;;;;;;;18.43;100.00;-18523.13;5008263;28;19925;-85
2023/05/12 08:46:38;;;;;;;;;;;;;;;18.55;100.00;-18526.25;4996978;28;19917;-84
2023/05/12 08:49:05;;;;;;;;;;;;;;;18.55;100.00;-18526.25;5006444;28;20017;-84
2023/05/12 08:51:31;;;;;;;;;;;;;;;18.61;100.00;-18527.75;4996685;28;19914;-84
2023/05/12 08:53:56;;;;;;;;;;;;;;;18.70;100.00;-18530.34;5005752;28;20705;-85
2023/05/12 08:56:21;;;;;;;;;;;;;;;18.88;100.00;-18535.00;5023254;28;19913;-84
2023/05/12 08:58:47;;;;;;;;;;;;;;;19.01;100.00;-18538.53;5007828;28;20297;-84
2023/05/12 09:01:13;;;;;;;;;;;;;;;19.04;100.00;-18539.22;5014466;28;20012;-85
2023/05/12 09:03:38;;;;;;;;;;;;;;;18.91;100.00;-18535.81;5005843;28;19945;-85
2023/05/12 09:06:05;;;;;;;;;;;;;;;18.99;100.00;-18537.84;5006668;28;20381;-84
2023/05/12 09:08:33;;;;;;;;;;;;;;;19.04;100.00;-18539.34;4997362;28;20352;-84
2023/05/12 09:10:59;;;;;;;;;;;;;;;19.23;100.00;-18544.25;5011597;28;20482;-84
2023/05/12 09:13:45;;;;;;;;;;;;;;;19.35;100.00;-18547.53;5011166;28;19913;-84
2023/05/12 09:16:11;;;;;;;;;;;;;;;19.39;100.00;-18548.75;4998314;28;20454;-85
2023/05/12 09:18:52;;;;;;;;;;;;;;;19.34;100.00;-18547.25;5004306;28;20456;-84
2023/05/12 09:21:18;;;;;;;;;;;;;;;19.50;100.00;-18551.47;5033969;28;19925;-85
2023/05/12 09:24:04;;;;;;;;;;;;;;;19.60;100.00;-18554.19;5008118;28;19921;-84
2023/05/12 09:26:30;;;;;;;;;;;;;;;19.72;100.00;-18557.34;5001089;28;19952;-85
2023/05/12 09:29:05;;;;;;;;;;;;;;;19.78;100.00;-18559.09;5004829;28;20393;-85
2023/05/12 09:31:30;;;;;;;;;;;;;;;19.86;100.00;-18561.16;5025787;28;19913;-85
2023/05/12 09:33:57;;;;;;;;;;;;;;;19.85;100.00;-18560.88;5011415;28;19928;-85
2023/05/12 09:36:23;;;;;;;;;;;;;;;19.92;100.00;-18562.78;5015461;28;19926;-84
2023/05/12 09:39:03;;;;;;;;;;;;;;;19.76;100.00;-18558.41;5003396;28;20011;-85
2023/05/12 09:41:29;;;;;;;;;;;;;;;19.69;100.00;-18556.53;5000963;28;20325;-85
2023/05/12 09:43:55;;;;;;;;;;;;;;;19.76;100.00;-18558.41;5001307;28;19925;-85
2023/05/12 09:46:20;;;;;;;;;;;;;;;19.83;100.00;-18560.34;5000882;28;19925;-85
2023/05/12 09:48:46;;;;;;;;;;;;;;;19.78;100.00;-18559.09;5001381;28;19921;-85
2023/05/12 09:51:15;;;;;;;;;;;;;;;19.73;100.00;-18557.59;5033855;28;20305;-84
2023/05/12 09:53:43;;;;;;;;;;;;;;;19.71;100.00;-18557.06;4999745;28;19924;-84
2023/05/12 09:56:08;;;;;;;;;;;;;;;19.91;100.00;-18562.50;5005225;28;19939;-85
2023/05/12 09:58:33;;;;;;;;;;;;;;;19.73;100.00;-18557.59;5003558;28;20356;-84
2023/05/12 10:00:59;;;;;;;;;;;;;;;19.85;100.00;-18560.88;5003772;28;19928;-85
2023/05/12 10:03:25;;;;;;;;;;;;;;;19.73;100.00;-18557.75;5020549;28;19918;-85
2023/05/12 10:05:57;;;;;;;;;;;;;;;19.70;100.00;-18556.78;5031748;28;19918;-85
2023/05/12 10:08:28;;;;;;;;;;;;;;;19.74;100.00;-18557.88;5001085;28;19921;-85
2023/05/12 10:10:55;;;;;;;;;;;;;;;19.86;100.00;-18561.00;4993509;28;19918;-85
2023/05/12 10:13:21;;;;;;;;;;;;;;;19.77;100.00;-18558.69;4998692;28;19953;-85
2023/05/12 10:15:47;;;;;;;;;;;;;;;19.89;100.00;-18561.97;5000512;28;19926;-85
2023/05/12 10:18:14;;;;;;;;;;;;;;;19.85;100.00;-18560.88;5007477;28;19924;-85
2023/05/12 10:20:40;;;;;;;;;;;;;;;19.92;100.00;-18562.66;5033751;28;19929;-85
2023/05/12 10:23:06;;;;;;;;;;;;;;;19.92;100.00;-18562.66;5002093;28;19963;-85
2023/05/12 10:25:32;;;;;;;;;;;;;;;20.01;100.00;-18565.09;5005038;28;20420;-85
2023/05/12 10:27:59;;;;;;;;;;;;;;;19.98;100.00;-18564.28;5005617;28;19926;-85
2023/05/12 10:30:25;;;;;;;;;;;;;;;20.04;100.00;-18566.03;5004750;28;20004;-85
2023/05/12 10:32:51;;;;;;;;;;;;;;;20.15;100.00;-18568.91;5007354;28;19953;-85
2023/05/12 10:35:17;;;;;;;;;;;;;;;20.37;100.00;-18574.63;5002311;28;19951;-85
2023/05/12 10:37:43;;;;;;;;;;;;;;;20.32;100.00;-18573.41;5006452;28;19918;-85
2023/05/12 10:40:10;;;;;;;;;;;;;;;20.24;100.00;-18571.22;5001898;28;20136;-85
2023/05/12 10:42:36;;;;;;;;;;;;;;;20.07;100.00;-18566.72;5005608;28;19928;-85
2023/05/12 10:45:04;;;;;;;;;;;;;;;20.04;100.00;-18566.03;5013168;28;19917;-84
2023/05/12 10:47:36;;;;;;;;;;;;;;;19.94;100.00;-18563.31;5014538;28;19925;-85
2023/05/12 10:50:01;;;;;;;;;;;;;;;20.12;100.00;-18567.97;5006957;28;20466;-85
2023/05/12 10:52:26;;;;;;;;;;;;;;;20.31;100.00;-18573.13;5008193;28;19917;-85
2023/05/12 10:54:58;;;;;;;;;;;;;;;20.64;100.00;-18581.97;5005866;28;19918;-85
2023/05/12 10:57:23;;;;;;;;;;;;;;;20.95;100.00;-18590.28;4997458;28;20552;-85
2023/05/12 10:59:56;;;;;;;;;;;;;;;20.92;100.00;-18589.47;5001127;28;19921;-85
2023/05/12 11:02:29;;;;;;;;;;;;;;;21.05;100.00;-18592.72;5004287;28;19948;-85
2023/05/12 11:04:56;;;;;;;;;;;;;;;20.77;100.00;-18585.38;5005247;28;19921;-85
2023/05/12 11:07:23;;;;;;;;;;;;;;;20.94;100.00;-18590.00;5005221;28;20269;-85
2023/05/12 11:09:48;;;;;;;;;;;;;;;21.09;100.00;-18593.94;5034949;28;19921;-85
2023/05/12 11:12:14;;;;;;;;;;;;;;;21.12;100.00;-18594.75;5000610;28;20290;-84
2023/05/12 11:14:41;;;;;;;;;;;;;;;21.25;100.00;-18598.16;5001431;28;19951;-84
2023/05/12 11:17:08;;;;;;;;;;;;;;;21.29;100.00;-18599.25;4999916;28;20536;-84
2023/05/12 11:19:33;;;;;;;;;;;;;;;21.42;100.00;-18602.50;5000994;28;20355;-84
2023/05/12 11:22:06;;;;;;;;;;;;;;;21.45;100.00;-18603.31;5005300;28;19925;-84
2023/05/12 11:24:31;;;;;;;;;;;;;;;21.68;100.00;-18609.44;5001490;28;19925;-84
2023/05/12 11:26:57;;;;;;;;;;;;;;;21.70;100.00;-18610.13;5002319;28;20273;-84
2023/05/12 11:29:22;;;;;;;;;;;;;;;21.72;100.00;-18610.66;4997890;28;19913;-84
2023/05/12 11:31:48;;;;;;;;;;;;;;;21.90;100.00;-18615.28;4999659;28;19917;-84
2023/05/12 11:34:14;;;;;;;;;;;;;;;21.92;100.00;-18615.81;5013063;28;19926;-84
2023/05/12 11:36:41;;;;;;;;;;;;;;;21.95;100.00;-18616.78;5000933;28;20024;-84
2023/05/12 11:39:11;;;;;;;;;;;;;;;21.88;100.00;-18614.75;5003202;28;19935;-84
2023/05/12 11:41:37;;;;;;;;;;;;;;;21.75;100.00;-18611.47;5001026;28;19925;-83
2023/05/12 11:44:11;;;;;;;;;;;;;;;22.12;100.00;-18621.25;5004883;28;19920;-84
2023/05/12 11:46:36;;;;;;;;;;;;;;;22.31;100.00;-18626.28;4999499;28;19944;-84
2023/05/12 11:49:03;;;;;;;;;;;;;;;22.29;100.00;-18625.75;5011814;28;19921;-83
2023/05/12 11:51:28;;;;;;;;;;;;;;;22.34;100.00;-18627.09;5001187;28;19924;-84
2023/05/12 11:53:53;;;;;;;;;;;;;;;22.33;100.00;-18626.84;5013908;28;19921;-84
2023/05/12 11:56:20;;;;;;;;;;;;;;;22.27;100.00;-18625.22;4999228;28;19996;-83
2023/05/12 11:58:55;;;;;;;;;;;;;;;22.45;100.00;-18629.97;4995402;28;19913;-84
2023/05/12 12:01:21;;;;;;;;;;;;;;;22.69;100.00;-18636.34;5002449;28;20280;-83
2023/05/12 12:03:47;;;;;;;;;;;;;;;22.60;100.00;-18633.91;5002787;28;19929;-83
2023/05/12 12:06:13;;;;;;;;;;;;;;;22.94;100.00;-18643.00;5002555;28;20004;-83
2023/05/12 12:08:48;;;;;;;;;;;;;;;22.88;100.00;-18641.38;5000986;28;20384;-83
2023/05/12 12:11:13;;;;;;;;;;;;;;;22.78;100.00;-18638.66;4996598;28;19996;-84
2023/05/12 12:13:46;;;;;;;;;;;;;;;22.91;100.00;-18642.19;5002353;28;20032;-86
2023/05/12 12:16:11;;;;;;;;;;;;;;;23.01;100.00;-18644.91;5022188;28;19924;-84
2023/05/12 12:18:36;;;;;;;;;;;;;;;22.91;100.00;-18642.19;5004301;28;19918;-84
2023/05/12 12:21:01;;;;;;;;;;;;;;;23.50;100.00;-18657.78;5003082;28;19975;-84
2023/05/12 12:23:27;;;;;;;;;;;;;;;23.71;100.00;-18663.47;5003364;28;20012;-84